createdAt,value
2022-08-08T00:01:18.129Z,21.38
2022-08-08T00:03:56.070Z,21.44
2022-08-08T00:06:36.783Z,21.51
2022-08-08T00:09:15.703Z,21.44
2022-08-08T00:12:06.792Z,21.44
2022-08-08T00:14:59.872Z,21.51
2022-08-08T00:17:58.694Z,21.50
2022-08-08T00:20:37.416Z,21.38
2022-08-08T00:23:10.485Z,21.34
2022-08-08T00:25:46.845Z,21.22
2022-08-08T00:28:35.286Z,20.85
2022-08-08T00:32:20.231Z,21.46
2022-08-08T00:34:35.695Z,21.54
2022-08-08T00:37:16.491Z,21.65
2022-08-08T00:41:10.464Z,21.53
2022-08-08T00:44:10.942Z,21.49
2022-08-08T00:47:23.255Z,21.36
2022-08-08T00:50:22.721Z,21.23
2022-08-08T00:53:01.585Z,21.27
2022-08-08T00:56:11.504Z,21.38
2022-08-08T00:59:18.689Z,21.40
2022-08-08T01:03:15.306Z,21.16
2022-08-08T01:05:59.732Z,21.20
2022-08-08T01:09:36.093Z,21.21
2022-08-08T01:12:36.800Z,21.35
2022-08-08T01:15:53.427Z,21.46
2022-08-08T01:18:52.655Z,21.48
2022-08-08T01:22:11.908Z,21.19
2022-08-08T01:24:58.658Z,21.28
2022-08-08T01:28:06.262Z,21.28
2022-08-08T01:31:10.498Z,21.30
2022-08-08T01:34:32.139Z,21.22
2022-08-08T01:37:57.465Z,21.18
2022-08-08T01:40:28.048Z,21.15
2022-08-08T01:43:08.317Z,21.22
2022-08-08T01:46:04.101Z,21.12
2022-08-08T01:48:57.261Z,21.16
2022-08-08T01:52:53.518Z,21.23
2022-08-08T01:55:45.295Z,21.21
2022-08-08T01:58:04.181Z,21.13
2022-08-08T02:00:57.526Z,20.88
2022-08-08T02:03:54.426Z,20.91
2022-08-08T02:06:45.049Z,21.01
2022-08-08T02:10:02.512Z,21.08
2022-08-08T02:12:24.029Z,21.08
2022-08-08T02:14:59.728Z,21.00
2022-08-08T02:17:42.856Z,21.14
2022-08-08T02:21:02.500Z,21.14
2022-08-08T02:23:19.620Z,20.81
2022-08-08T02:26:00.605Z,20.92
2022-08-08T02:28:51.890Z,20.97
2022-08-08T02:31:57.855Z,20.47
2022-08-08T02:35:08.041Z,20.94
2022-08-08T02:37:52.437Z,20.95
2022-08-08T02:40:38.992Z,20.90
2022-08-08T02:44:42.296Z,20.31
2022-08-08T02:46:46.854Z,21.02
2022-08-08T02:49:50.619Z,20.90
2022-08-08T02:52:51.411Z,21.15
2022-08-08T02:55:48.160Z,21.05
2022-08-08T02:59:26.163Z,21.01
2022-08-08T03:02:36.745Z,20.82
2022-08-08T03:05:46.430Z,20.82
2022-08-08T03:08:52.166Z,20.93
2022-08-08T03:12:02.604Z,20.94
2022-08-08T03:15:57.613Z,20.97
2022-08-08T03:18:07.621Z,20.97
2022-08-08T03:20:46.935Z,21.01
2022-08-08T03:23:21.757Z,20.17
2022-08-08T03:25:52.741Z,20.89
2022-08-08T03:28:29.238Z,20.94
2022-08-08T03:31:13.661Z,20.82
2022-08-08T03:33:56.133Z,20.98
2022-08-08T03:36:30.384Z,20.97
2022-08-08T03:39:14.964Z,20.80
2022-08-08T03:42:13.060Z,20.99
2022-08-08T03:44:35.096Z,21.05
2022-08-08T03:47:14.129Z,21.09
2022-08-08T03:49:58.887Z,20.92
2022-08-08T03:52:34.062Z,20.80
2022-08-08T03:55:55.654Z,21.00
2022-08-08T03:58:30.074Z,20.90
2022-08-08T04:01:02.657Z,20.92
2022-08-08T04:03:58.126Z,20.87
2022-08-08T04:06:30.004Z,20.39
2022-08-08T04:09:08.879Z,20.97
2022-08-08T04:11:59.012Z,20.09
2022-08-08T04:14:34.641Z,20.86
2022-08-08T04:17:15.473Z,20.78
2022-08-08T04:19:52.287Z,20.93
2022-08-08T04:22:24.095Z,20.73
2022-08-08T04:24:52.689Z,20.79
2022-08-08T04:28:02.899Z,20.90
2022-08-08T04:30:18.271Z,20.83
2022-08-08T04:32:50.028Z,20.87
2022-08-08T04:35:20.308Z,20.99
2022-08-08T04:37:51.631Z,20.61
2022-08-08T04:40:24.185Z,20.84
2022-08-08T04:43:00.765Z,20.65
2022-08-08T04:45:29.896Z,20.64
2022-08-08T04:48:00.675Z,20.55
2022-08-08T04:50:37.506Z,20.60
2022-08-08T04:53:14.317Z,20.77
2022-08-08T04:55:56.823Z,20.30
2022-08-08T04:58:26.968Z,20.63
2022-08-08T05:00:55.568Z,20.54
2022-08-08T05:04:11.563Z,20.51
2022-08-08T05:06:18.384Z,20.52
2022-08-08T05:09:02.197Z,20.54
2022-08-08T05:11:38.672Z,20.37
2022-08-08T05:14:11.017Z,20.52
2022-08-08T05:16:52.194Z,20.42
2022-08-08T05:20:11.690Z,20.56
2022-08-08T05:22:17.911Z,20.70
2022-08-08T05:24:48.590Z,20.66
2022-08-08T05:27:17.491Z,20.77
2022-08-08T05:29:50.276Z,20.81
2022-08-08T05:32:24.718Z,20.79
2022-08-08T05:35:04.713Z,20.76
2022-08-08T05:37:52.332Z,20.90
2022-08-08T05:40:28.377Z,20.84
2022-08-08T05:43:02.896Z,20.86
2022-08-08T05:46:03.378Z,20.83
2022-08-08T05:48:34.585Z,21.05
2022-08-08T05:51:14.347Z,20.77
2022-08-08T05:54:24.402Z,21.10
2022-08-08T05:56:42.381Z,21.23
2022-08-08T05:59:59.139Z,21.40
2022-08-08T06:02:40.801Z,21.51
2022-08-08T06:05:33.209Z,21.49
2022-08-08T06:08:14.498Z,21.62
2022-08-08T06:10:55.343Z,21.72
2022-08-08T06:13:24.143Z,21.72
2022-08-08T06:15:55.192Z,21.59
2022-08-08T06:18:28.157Z,21.69
2022-08-08T06:20:58.111Z,21.65
2022-08-08T06:23:53.352Z,21.73
2022-08-08T06:26:38.675Z,21.17
2022-08-08T06:29:26.916Z,21.30
2022-08-08T06:32:11.428Z,21.73
2022-08-08T06:34:52.516Z,21.90
2022-08-08T06:37:40.115Z,22.03
2022-08-08T06:40:16.278Z,22.06
2022-08-08T06:42:53.965Z,22.16
2022-08-08T06:45:23.626Z,22.15
2022-08-08T06:48:01.285Z,21.67
2022-08-08T06:50:33.599Z,22.14
2022-08-08T06:53:17.269Z,22.10
2022-08-08T06:56:02.389Z,21.42
2022-08-08T06:58:33.175Z,21.97
2022-08-08T07:01:11.722Z,22.22
2022-08-08T07:04:39.041Z,22.18
2022-08-08T07:06:51.734Z,22.16
2022-08-08T07:09:21.981Z,22.12
2022-08-08T07:11:59.834Z,22.14
2022-08-08T07:14:35.646Z,22.34
2022-08-08T07:17:09.423Z,22.43
2022-08-08T07:19:51.089Z,22.14
2022-08-08T07:22:28.815Z,22.74
2022-08-08T07:25:06.871Z,22.75
2022-08-08T07:28:01.777Z,22.83
2022-08-08T07:30:27.591Z,22.82
2022-08-08T07:32:59.569Z,22.81
2022-08-08T07:35:31.000Z,22.83
2022-08-08T07:38:10.546Z,22.77
2022-08-08T07:40:50.455Z,22.80
2022-08-08T07:43:32.158Z,22.82
2022-08-08T07:46:23.088Z,22.66
2022-08-08T07:48:53.177Z,22.85
2022-08-08T07:51:23.972Z,22.95
2022-08-08T07:54:26.665Z,23.00
2022-08-08T07:57:08.956Z,23.11
2022-08-08T07:59:59.618Z,22.59
2022-08-08T08:02:38.727Z,22.84
2022-08-08T08:05:15.014Z,22.78
2022-08-08T08:07:45.867Z,22.76
2022-08-08T08:10:30.795Z,22.82
2022-08-08T08:13:25.296Z,22.87
2022-08-08T08:16:17.124Z,22.99
2022-08-08T08:18:55.490Z,23.08
2022-08-08T08:21:44.208Z,23.24
2022-08-08T08:24:16.258Z,23.24
2022-08-08T08:26:52.939Z,23.18
2022-08-08T08:29:24.318Z,23.10
2022-08-08T08:31:59.093Z,23.32
2022-08-08T08:34:33.900Z,23.42
2022-08-08T08:37:03.333Z,23.53
2022-08-08T08:39:59.827Z,23.71
2022-08-08T08:42:29.446Z,23.81
2022-08-08T08:45:01.694Z,23.53
2022-08-08T08:47:52.916Z,23.77
2022-08-08T08:50:33.581Z,24.03
2022-08-08T08:53:27.996Z,24.09
2022-08-08T08:56:01.904Z,24.05
2022-08-08T08:58:41.354Z,24.07
2022-08-08T09:01:13.564Z,22.31
2022-08-08T09:03:50.835Z,23.79
2022-08-08T09:06:26.293Z,24.27
2022-08-08T09:09:02.873Z,23.66
2022-08-08T09:11:47.567Z,24.29
2022-08-08T09:14:27.364Z,24.37
2022-08-08T09:16:55.926Z,24.42
2022-08-08T09:21:54.094Z,24.36
2022-08-08T09:22:25.915Z,24.52
2022-08-08T09:24:58.618Z,24.47
2022-08-08T09:27:56.812Z,24.56
2022-08-08T09:30:20.234Z,24.68
2022-08-08T09:33:54.873Z,24.49
2022-08-08T09:35:50.016Z,24.45
2022-08-08T09:38:32.918Z,24.34
2022-08-08T09:41:07.437Z,24.33
2022-08-08T09:44:05.409Z,24.58
2022-08-08T09:46:45.088Z,24.33
2022-08-08T09:49:40.956Z,25.01
2022-08-08T09:52:09.193Z,25.20
2022-08-08T09:54:46.105Z,24.96
2022-08-08T09:57:25.007Z,25.18
2022-08-08T10:00:28.831Z,25.35
2022-08-08T10:02:46.015Z,25.55
2022-08-08T10:05:22.947Z,24.81
2022-08-08T10:08:00.379Z,25.18
2022-08-08T10:10:31.920Z,25.37
2022-08-08T10:13:06.039Z,25.23
2022-08-08T10:16:01.119Z,25.36
2022-08-08T10:18:34.572Z,25.29
2022-08-08T10:21:22.958Z,24.38
2022-08-08T10:24:00.046Z,24.81
2022-08-08T10:26:57.268Z,24.63
2022-08-08T10:29:25.123Z,24.66
2022-08-08T10:32:17.443Z,24.02
2022-08-08T10:35:01.455Z,24.40
2022-08-08T10:37:34.703Z,24.35
2022-08-08T10:40:16.100Z,24.46
2022-08-08T10:42:46.769Z,24.75
2022-08-08T10:45:17.214Z,24.58
2022-08-08T10:47:55.313Z,25.25
2022-08-08T10:50:33.245Z,25.23
2022-08-08T10:53:07.532Z,24.86
2022-08-08T10:55:46.324Z,24.54
2022-08-08T10:58:16.089Z,24.49
2022-08-08T11:00:53.106Z,24.49
2022-08-08T11:04:00.970Z,24.73
2022-08-08T11:06:34.993Z,25.00
2022-08-08T11:09:15.107Z,25.00
2022-08-08T11:12:06.317Z,25.11
2022-08-08T11:14:36.962Z,24.92
2022-08-08T11:17:15.664Z,24.98
2022-08-08T11:19:46.577Z,24.92
2022-08-08T11:22:26.986Z,24.86
2022-08-08T11:24:58.663Z,25.03
2022-08-08T11:27:37.194Z,25.25
2022-08-08T11:30:24.195Z,25.43
2022-08-08T11:32:56.918Z,25.52
2022-08-08T11:35:38.608Z,25.50
2022-08-08T11:38:36.497Z,25.61
2022-08-08T11:41:04.728Z,25.38
2022-08-08T11:43:38.823Z,25.46
2022-08-08T11:46:13.973Z,25.45
2022-08-08T11:48:48.042Z,25.24
2022-08-08T11:51:38.185Z,25.09
2022-08-08T11:54:26.875Z,25.18
2022-08-08T11:57:17.047Z,25.26
2022-08-08T12:00:01.705Z,25.32
2022-08-08T12:02:48.571Z,25.40
2022-08-08T12:05:22.796Z,25.45
2022-08-08T12:07:55.812Z,25.25
2022-08-08T12:10:27.579Z,25.43
2022-08-08T12:13:03.146Z,25.13
2022-08-08T12:15:42.450Z,25.22
2022-08-08T12:18:25.006Z,25.18
2022-08-08T12:20:56.680Z,24.89
2022-08-08T12:23:43.377Z,24.71
2022-08-08T12:26:27.833Z,24.83
2022-08-08T12:29:25.838Z,24.86
2022-08-08T12:32:13.274Z,24.78
2022-08-08T12:34:44.075Z,24.66
2022-08-08T12:37:22.513Z,24.70
2022-08-08T12:40:01.043Z,24.87
2022-08-08T12:42:33.671Z,24.94
2022-08-08T12:45:20.231Z,24.94
2022-08-08T12:48:09.665Z,25.09
2022-08-08T12:50:46.924Z,25.06
2022-08-08T12:53:30.137Z,24.85
2022-08-08T12:56:19.408Z,24.89
2022-08-08T12:58:55.263Z,24.88
2022-08-08T13:01:36.812Z,24.63
2022-08-08T13:04:18.827Z,24.31
2022-08-08T13:06:55.995Z,24.74
2022-08-08T13:09:43.247Z,24.87
2022-08-08T13:12:29.946Z,24.70
2022-08-08T13:15:03.360Z,24.82
2022-08-08T13:18:09.716Z,24.90
2022-08-08T13:20:22.161Z,24.56
2022-08-08T13:22:55.932Z,24.72
2022-08-08T13:25:36.862Z,24.95
2022-08-08T13:28:05.618Z,24.49
2022-08-08T13:30:35.600Z,24.62
2022-08-08T13:33:05.812Z,24.72
2022-08-08T13:35:40.479Z,24.77
2022-08-08T13:38:13.389Z,24.80
2022-08-08T13:40:45.050Z,24.77
2022-08-08T13:43:16.039Z,24.83
2022-08-08T13:45:47.146Z,24.78
2022-08-08T13:48:17.348Z,24.72
2022-08-08T13:50:58.044Z,24.71
2022-08-08T13:53:53.388Z,24.69
2022-08-08T13:56:44.547Z,24.73
2022-08-08T13:59:32.986Z,24.90
2022-08-08T14:02:07.734Z,24.82
2022-08-08T14:04:52.897Z,24.93
2022-08-08T14:07:23.453Z,24.69
2022-08-08T14:10:04.904Z,24.77
2022-08-08T14:12:46.859Z,24.72
2022-08-08T14:15:31.178Z,24.64
2022-08-08T14:18:35.932Z,24.75
2022-08-08T14:21:08.119Z,24.58
2022-08-08T14:24:04.199Z,24.39
2022-08-08T14:26:33.534Z,24.18
2022-08-08T14:29:05.845Z,24.13
2022-08-08T14:32:09.343Z,24.03
2022-08-08T14:34:39.060Z,24.09
2022-08-08T14:37:08.531Z,24.14
2022-08-08T14:39:48.473Z,24.28
2022-08-08T14:42:17.772Z,24.27
2022-08-08T14:44:57.338Z,23.58
2022-08-08T14:47:26.190Z,24.21
2022-08-08T14:50:15.240Z,24.31
2022-08-08T14:52:54.902Z,24.07
2022-08-08T14:55:35.648Z,24.26
2022-08-08T14:58:19.854Z,24.38
2022-08-08T15:00:50.690Z,24.35
2022-08-08T15:03:19.153Z,24.51
2022-08-08T15:05:53.822Z,24.56
2022-08-08T15:08:35.385Z,24.57
2022-08-08T15:11:10.432Z,24.62
2022-08-08T15:14:01.147Z,24.59
2022-08-08T15:16:34.353Z,24.65
2022-08-08T15:19:03.889Z,24.66
2022-08-08T15:21:34.436Z,24.65
2022-08-08T15:24:14.009Z,24.55
2022-08-08T15:26:44.313Z,24.51
2022-08-08T15:29:22.544Z,24.45
2022-08-08T15:32:17.736Z,24.48
2022-08-08T15:34:41.223Z,24.47
2022-08-08T15:37:12.905Z,24.46
2022-08-08T15:39:41.811Z,24.56
2022-08-08T15:42:17.809Z,24.59
2022-08-08T15:44:59.123Z,24.57
2022-08-08T15:47:27.379Z,24.54
2022-08-08T15:49:55.735Z,24.57
2022-08-08T15:52:25.924Z,24.60
2022-08-08T15:54:54.541Z,24.52
2022-08-08T15:57:23.684Z,24.45
2022-08-08T16:00:17.987Z,24.48
2022-08-08T16:02:44.565Z,24.42
2022-08-08T16:05:20.690Z,23.90
2022-08-08T16:07:54.009Z,24.39
2022-08-08T16:13:08.671Z,24.30
2022-08-08T16:13:45.231Z,23.92
2022-08-08T16:16:08.984Z,24.09
2022-08-08T16:18:42.710Z,24.04
2022-08-08T16:21:26.049Z,24.01
2022-08-08T16:23:56.444Z,23.90
2022-08-08T16:26:34.037Z,23.82
2022-08-08T16:29:07.790Z,23.75
2022-08-08T16:31:37.712Z,23.72
2022-08-08T16:34:07.201Z,23.66
2022-08-08T16:36:37.786Z,23.78
2022-08-08T16:39:09.691Z,23.66
2022-08-08T16:41:51.260Z,25.17
2022-08-08T16:44:27.402Z,25.40
2022-08-08T16:47:17.029Z,25.34
2022-08-08T16:49:47.719Z,25.17
2022-08-08T16:55:00.270Z,24.96
2022-08-08T16:55:33.954Z,24.71
2022-08-08T16:58:15.645Z,24.44
2022-08-08T17:00:49.042Z,24.32
2022-08-08T17:03:25.079Z,24.28
2022-08-08T17:06:35.324Z,24.08
2022-08-08T17:08:57.180Z,23.84
2022-08-08T17:11:28.391Z,23.86
2022-08-08T17:14:18.854Z,23.79
2022-08-08T17:16:51.829Z,23.64
2022-08-08T17:19:28.717Z,23.65
2022-08-08T17:21:57.760Z,23.14
2022-08-08T17:24:30.183Z,23.63
2022-08-08T17:27:02.392Z,23.63
2022-08-08T17:29:34.072Z,23.63
2022-08-08T17:32:05.914Z,23.53
2022-08-08T17:35:04.494Z,23.24
2022-08-08T17:37:25.863Z,23.15
2022-08-08T17:40:12.298Z,23.05
2022-08-08T17:42:47.209Z,22.68
2022-08-08T17:45:23.721Z,22.44
2022-08-08T17:47:54.581Z,22.71
2022-08-08T17:50:24.969Z,22.56
2022-08-08T17:52:53.807Z,22.33
2022-08-08T17:56:07.153Z,22.15
2022-08-08T17:58:15.865Z,22.33
2022-08-08T18:00:54.350Z,21.92
2022-08-08T18:03:26.449Z,22.46
2022-08-08T18:05:55.373Z,22.40
2022-08-08T18:08:37.942Z,22.24
2022-08-08T18:11:14.999Z,22.25
2022-08-08T18:13:47.245Z,22.11
2022-08-08T18:16:23.211Z,21.99
2022-08-08T18:18:55.894Z,22.16
2022-08-08T18:22:00.079Z,21.85
2022-08-08T18:24:18.722Z,21.49
2022-08-08T18:26:54.890Z,21.93
2022-08-08T18:29:33.247Z,21.75
2022-08-08T18:32:04.164Z,21.83
2022-08-08T18:34:33.689Z,21.74
2022-08-08T18:37:07.940Z,21.73
2022-08-08T18:39:37.845Z,21.66
2022-08-08T18:42:13.820Z,21.42
2022-08-08T18:44:54.972Z,19.84
2022-08-08T18:47:25.939Z,21.53
2022-08-08T18:49:58.279Z,21.40
2022-08-08T18:52:29.734Z,21.31
2022-08-08T18:55:09.481Z,21.34
2022-08-08T18:57:41.490Z,21.32
2022-08-08T19:00:20.622Z,21.48
2022-08-08T19:02:57.050Z,21.28
2022-08-08T19:05:30.702Z,21.41
2022-08-08T19:08:24.092Z,21.51
2022-08-08T19:10:56.758Z,21.50
2022-08-08T19:13:25.446Z,21.44
2022-08-08T19:16:18.765Z,21.40
2022-08-08T19:18:54.556Z,21.49
2022-08-08T19:21:30.495Z,21.54
2022-08-08T19:23:59.908Z,21.53
2022-08-08T19:26:30.155Z,20.97
2022-08-08T19:28:59.736Z,21.01
2022-08-08T19:31:31.613Z,21.50
2022-08-08T19:34:35.696Z,21.53
2022-08-08T19:36:55.313Z,21.18
2022-08-08T19:39:26.706Z,21.57
2022-08-08T19:42:05.294Z,21.39
2022-08-08T19:44:43.061Z,21.51
2022-08-08T19:47:16.029Z,21.48
2022-08-08T19:49:59.744Z,21.47
2022-08-08T19:52:35.512Z,21.35
2022-08-08T19:55:11.238Z,21.21
2022-08-08T19:57:41.267Z,21.27
2022-08-08T20:00:28.995Z,21.27
2022-08-08T20:03:01.275Z,21.26
2022-08-08T20:06:13.472Z,20.84
2022-08-08T20:08:28.950Z,21.11
2022-08-08T20:11:00.300Z,21.16
2022-08-08T20:14:32.141Z,21.09
2022-08-08T20:16:17.218Z,21.07
2022-08-08T20:18:53.058Z,20.95
2022-08-08T20:21:24.920Z,21.15
2022-08-08T20:23:58.073Z,21.01
2022-08-08T20:26:30.250Z,21.12
2022-08-08T20:29:03.614Z,20.60
2022-08-08T20:31:47.044Z,21.11
2022-08-08T20:34:30.983Z,21.00
2022-08-08T20:37:02.611Z,20.97
2022-08-08T20:39:39.375Z,20.97
2022-08-08T20:42:28.494Z,21.02
2022-08-08T20:44:58.742Z,20.93
2022-08-08T20:47:36.291Z,20.74
2022-08-08T20:50:10.051Z,20.73
2022-08-08T20:52:40.058Z,20.68
2022-08-08T20:55:22.828Z,20.62
2022-08-08T20:57:54.301Z,20.60
2022-08-08T21:00:26.771Z,20.26
2022-08-08T21:02:55.189Z,20.49
2022-08-08T21:05:31.654Z,20.52
2022-08-08T21:08:35.996Z,20.50
2022-08-08T21:10:50.240Z,20.45
2022-08-08T21:13:18.462Z,20.48
2022-08-08T21:16:05.232Z,20.52
2022-08-08T21:18:35.255Z,20.30
2022-08-08T21:21:20.765Z,20.39
2022-08-08T21:24:09.329Z,20.37
2022-08-08T21:26:47.674Z,20.48
2022-08-08T21:29:20.204Z,20.38
2022-08-08T21:31:58.643Z,20.43
2022-08-08T21:34:30.088Z,20.36
2022-08-08T21:37:05.250Z,20.15
2022-08-08T21:39:54.933Z,20.31
2022-08-08T21:42:25.188Z,20.34
2022-08-08T21:44:59.149Z,20.34
2022-08-08T21:48:20.133Z,20.34
2022-08-08T21:50:31.003Z,20.40
2022-08-08T21:54:27.116Z,20.35
2022-08-08T21:56:20.066Z,20.58
2022-08-08T21:58:38.971Z,20.57
2022-08-08T22:01:28.332Z,20.28
2022-08-08T22:04:00.645Z,20.49
2022-08-08T22:06:32.027Z,20.13
2022-08-08T22:09:02.839Z,20.40
2022-08-08T22:11:55.038Z,20.34
2022-08-08T22:14:26.528Z,20.04
2022-08-08T22:16:55.380Z,20.13
2022-08-08T22:19:24.360Z,20.23
2022-08-08T22:21:57.272Z,20.02
2022-08-08T22:24:28.642Z,19.36
2022-08-08T22:27:02.457Z,19.89
2022-08-08T22:29:58.839Z,18.97
2022-08-08T22:32:20.279Z,19.87
2022-08-08T22:34:51.097Z,19.88
2022-08-08T22:37:49.926Z,19.71
2022-08-08T22:40:11.697Z,19.88
2022-08-08T22:42:47.368Z,19.63
2022-08-08T22:45:16.830Z,19.76
2022-08-08T22:47:47.023Z,19.69
2022-08-08T22:50:25.477Z,19.84
2022-08-08T22:54:15.845Z,19.86
2022-08-08T22:55:59.603Z,19.93
2022-08-08T22:58:33.808Z,20.05
2022-08-08T23:01:16.498Z,19.81
2022-08-08T23:03:53.317Z,20.04
2022-08-08T23:06:23.191Z,19.82
2022-08-08T23:08:55.410Z,19.72
2022-08-08T23:11:58.156Z,19.94
2022-08-08T23:14:17.829Z,19.98
2022-08-08T23:16:54.564Z,19.80
2022-08-08T23:19:26.354Z,19.79
2022-08-08T23:21:54.531Z,19.44
2022-08-08T23:24:23.513Z,19.36
2022-08-08T23:26:56.170Z,19.62
2022-08-08T23:29:25.619Z,19.58
2022-08-08T23:31:54.284Z,17.87
2022-08-08T23:34:23.290Z,19.37
2022-08-08T23:36:58.012Z,18.82
2022-08-08T23:39:32.349Z,19.07
2022-08-08T23:42:11.940Z,19.08
2022-08-08T23:44:40.091Z,19.02
2022-08-08T23:49:00.210Z,19.07
2022-08-08T23:50:02.872Z,19.00
2022-08-08T23:52:33.910Z,18.88
2022-08-08T23:55:19.515Z,18.84
2022-08-08T23:57:52.843Z,18.84
